Time;durP1;ratioP1;P1;durP2;ratioP2;P2;SDS_P1;SDS_P2;PMS_P1;PMS_P2;Temp;Humidity;BMP_temperature;BMP_pressure;BME280_temperature;BME280_humidity;BME280_pressure;Samples;Min_cycle;Max_cycle;Signal;HPM_P1;HPM_P2
2022/12/16 00:01:22;;;;;;;;;;;-2.20;99.90;;;;;;5063222;28;19908;-58
2022/12/16 00:03:48;;;;;;;;;;;-2.20;99.90;;;;;;5056127;28;19967;-57
2022/12/16 00:06:14;;;;;;;;;;;-2.20;99.90;;;;;;5057709;28;20498;-55
2022/12/16 00:08:40;;;;;;;;;;;-2.20;99.90;;;;;;5060446;28;19917;-58
2022/12/16 00:11:06;;;;;;;;;;;-2.20;99.90;;;;;;5059020;28;20299;-59
2022/12/16 00:13:32;;;;;;;;;;;-2.20;99.90;;;;;;5057334;28;20007;-57
2022/12/16 00:15:58;;;;;;;;;;;-2.20;99.90;;;;;;5058427;28;19917;-56
2022/12/16 00:18:24;;;;;;;;;;;-2.20;99.90;;;;;;5059507;28;19977;-59
2022/12/16 00:20:51;;;;;;;;;;;-2.20;99.90;;;;;;5062570;28;19919;-59
2022/12/16 00:23:16;;;;;;;;;;;-2.10;99.90;;;;;;5059074;28;19909;-58
2022/12/16 00:25:43;;;;;;;;;;;-2.10;99.90;;;;;;5061053;28;19959;-59
2022/12/16 00:28:09;;;;;;;;;;;-2.10;99.90;;;;;;5063551;28;19915;-58
2022/12/16 00:30:34;;;;;;;;;;;-2.20;99.90;;;;;;5060249;28;19916;-57
2022/12/16 00:32:59;;;;;;;;;;;-2.10;99.90;;;;;;5064597;28;19912;-59
2022/12/16 00:35:25;;;;;;;;;;;-2.10;99.90;;;;;;5058205;28;20339;-58
2022/12/16 00:37:50;;;;;;;;;;;-2.10;99.90;;;;;;5065587;28;19909;-58
2022/12/16 00:40:16;;;;;;;;;;;-2.10;99.90;;;;;;5059152;28;20355;-57
2022/12/16 00:42:41;;;;;;;;;;;-2.10;99.90;;;;;;5060999;28;20294;-58
2022/12/16 00:45:07;;;;;;;;;;;-2.10;99.90;;;;;;5062870;28;19921;-56
2022/12/16 00:47:32;;;;;;;;;;;-2.10;99.90;;;;;;5059529;28;19913;-55
2022/12/16 00:49:58;;;;;;;;;;;-2.10;99.90;;;;;;5065775;28;19913;-57
2022/12/16 00:52:23;;;;;;;;;;;-2.10;99.90;;;;;;5058978;28;19938;-57
2022/12/16 00:54:49;;;;;;;;;;;-2.10;99.90;;;;;;5066751;28;19909;-58
2022/12/16 00:57:14;;;;;;;;;;;-2.10;99.90;;;;;;5058683;28;19916;-59
2022/12/16 00:59:40;;;;;;;;;;;-2.10;99.90;;;;;;5060260;28;19913;-57
2022/12/16 01:02:05;;;;;;;;;;;-2.10;99.90;;;;;;5063349;28;19959;-57
2022/12/16 01:04:31;;;;;;;;;;;-2.00;99.90;;;;;;5057704;28;19955;-57
2022/12/16 01:06:56;;;;;;;;;;;-2.10;99.90;;;;;;5061871;28;19967;-58
2022/12/16 01:09:21;;;;;;;;;;;-2.10;99.90;;;;;;5054923;28;19913;-59
2022/12/16 01:11:53;;;;;;;;;;;-2.10;99.90;;;;;;5060411;28;19921;-59
2022/12/16 01:14:19;;;;;;;;;;;-2.10;99.90;;;;;;5054352;28;19998;-58
2022/12/16 01:16:44;;;;;;;;;;;-2.10;99.90;;;;;;5060140;28;20055;-57
2022/12/16 01:19:10;;;;;;;;;;;-2.10;99.90;;;;;;5061874;28;19970;-56
2022/12/16 01:21:36;;;;;;;;;;;-2.10;99.90;;;;;;5057814;28;19916;-58
2022/12/16 01:24:01;;;;;;;;;;;-2.10;99.90;;;;;;5053100;28;19982;-58
2022/12/16 01:26:27;;;;;;;;;;;-2.10;99.90;;;;;;5051124;28;19979;-57
2022/12/16 01:28:52;;;;;;;;;;;-2.10;99.90;;;;;;5058927;28;20180;-58
2022/12/16 01:31:19;;;;;;;;;;;-2.00;99.90;;;;;;5058239;28;20025;-57
2022/12/16 01:33:44;;;;;;;;;;;-2.00;99.90;;;;;;5058901;28;20472;-57
2022/12/16 01:36:10;;;;;;;;;;;-2.00;99.90;;;;;;5054374;28;19989;-57
2022/12/16 01:38:35;;;;;;;;;;;-2.10;99.90;;;;;;5059093;28;19915;-58
2022/12/16 01:41:01;;;;;;;;;;;-2.10;99.90;;;;;;5053099;28;19916;-57
2022/12/16 01:43:31;;;;;;;;;;;-2.10;99.90;;;;;;5050424;28;20679;-55
2022/12/16 01:45:59;;;;;;;;;;;-2.10;99.90;;;;;;5049902;28;19913;-57
2022/12/16 01:48:27;;;;;;;;;;;-2.10;99.90;;;;;;5060748;28;19909;-55
2022/12/16 01:50:55;;;;;;;;;;;-2.10;99.90;;;;;;5061855;28;19931;-54
2022/12/16 01:53:21;;;;;;;;;;;-2.10;99.90;;;;;;5043224;28;20257;-57
2022/12/16 01:55:47;;;;;;;;;;;-2.10;99.90;;;;;;5059514;28;19944;-55
2022/12/16 01:58:17;;;;;;;;;;;-2.10;99.90;;;;;;5060354;28;19913;-57
2022/12/16 02:00:43;;;;;;;;;;;-2.10;99.90;;;;;;5056422;28;19916;-57
2022/12/16 02:03:09;;;;;;;;;;;-2.10;99.90;;;;;;5056234;28;20295;-58
2022/12/16 02:05:36;;;;;;;;;;;-2.10;99.90;;;;;;5059963;28;20053;-57
2022/12/16 02:08:06;;;;;;;;;;;-2.10;99.90;;;;;;5057575;28;20011;-56
2022/12/16 02:10:40;;;;;;;;;;;-2.10;99.90;;;;;;5058900;28;19923;-57
2022/12/16 02:13:17;;;;;;;;;;;-2.00;99.90;;;;;;5052846;28;19936;-57
2022/12/16 02:16:01;;;;;;;;;;;-2.00;99.90;;;;;;5058931;28;20412;-58
2022/12/16 02:18:35;;;;;;;;;;;-2.00;99.90;;;;;;5054278;28;20151;-58
2022/12/16 02:21:05;;;;;;;;;;;-2.00;99.90;;;;;;5051336;28;20369;-56
2022/12/16 02:23:41;;;;;;;;;;;-2.00;99.90;;;;;;5057773;28;20301;-57
2022/12/16 02:26:25;;;;;;;;;;;-2.00;99.90;;;;;;5060733;28;19964;-58
2022/12/16 02:29:09;;;;;;;;;;;-2.10;99.90;;;;;;5060027;28;19920;-58
2022/12/16 02:31:35;;;;;;;;;;;-2.00;99.90;;;;;;5057353;28;19924;-58
2022/12/16 02:34:08;;;;;;;;;;;-2.10;99.90;;;;;;5057736;28;19920;-57
2022/12/16 02:36:57;;;;;;;;;;;-2.10;99.90;;;;;;5053144;28;19920;-58
2022/12/16 02:39:27;;;;;;;;;;;-2.10;99.90;;;;;;5057432;28;19915;-57
2022/12/16 02:42:11;;;;;;;;;;;-2.10;99.90;;;;;;5057688;28;19917;-56
2022/12/16 02:44:43;;;;;;;;;;;-2.10;99.90;;;;;;5063266;28;19970;-58
2022/12/16 02:47:09;;;;;;;;;;;-2.10;99.90;;;;;;5057679;28;19913;-56
2022/12/16 02:49:42;;;;;;;;;;;-2.10;99.90;;;;;;5058952;28;19908;-58
2022/12/16 02:52:07;;;;;;;;;;;-2.10;99.90;;;;;;5057875;28;19925;-59
2022/12/16 02:54:33;;;;;;;;;;;-2.10;99.90;;;;;;5061008;28;19919;-59
2022/12/16 02:57:10;;;;;;;;;;;-2.10;99.90;;;;;;5062001;28;19963;-58
2022/12/16 02:59:40;;;;;;;;;;;-2.10;99.90;;;;;;5058265;28;19916;-58
2022/12/16 03:02:08;;;;;;;;;;;-2.20;99.90;;;;;;5062049;28;19916;-58
2022/12/16 03:04:54;;;;;;;;;;;-2.10;99.90;;;;;;5057171;28;19917;-57
2022/12/16 03:07:22;;;;;;;;;;;-2.20;99.90;;;;;;5040208;28;19913;-59
2022/12/16 03:09:48;;;;;;;;;;;-2.20;99.90;;;;;;5058109;28;19947;-59
2022/12/16 03:12:15;;;;;;;;;;;-2.20;99.90;;;;;;5058514;28;19912;-59
2022/12/16 03:14:42;;;;;;;;;;;-2.20;99.90;;;;;;5058816;28;20011;-59
2022/12/16 03:17:08;;;;;;;;;;;-2.20;99.90;;;;;;5060573;28;19928;-57
2022/12/16 03:19:35;;;;;;;;;;;-2.20;99.90;;;;;;5051745;28;19920;-58
2022/12/16 03:22:06;;;;;;;;;;;-2.30;99.90;;;;;;5062984;28;20394;-56
2022/12/16 03:24:32;;;;;;;;;;;-2.40;99.90;;;;;;5062278;28;19920;-57
2022/12/16 03:27:10;;;;;;;;;;;-2.40;99.90;;;;;;5054010;28;19983;-58
2022/12/16 03:29:35;;;;;;;;;;;-2.50;99.90;;;;;;5048701;28;20292;-57
2022/12/16 03:32:06;;;;;;;;;;;-2.60;99.90;;;;;;5055292;28;20007;-58
2022/12/16 03:34:31;;;;;;;;;;;-2.60;99.90;;;;;;5062042;28;19965;-58
2022/12/16 03:36:59;;;;;;;;;;;-2.70;99.90;;;;;;5056232;28;20007;-58
2022/12/16 03:39:26;;;;;;;;;;;-2.70;99.90;;;;;;5054066;28;19913;-57
2022/12/16 03:41:53;;;;;;;;;;;-2.80;99.90;;;;;;5063210;28;19951;-57
2022/12/16 03:44:20;;;;;;;;;;;-2.80;99.90;;;;;;5056682;28;19920;-58
2022/12/16 03:46:46;;;;;;;;;;;-2.80;99.90;;;;;;5046906;28;20322;-59
2022/12/16 03:49:11;;;;;;;;;;;-2.80;99.90;;;;;;5063886;28;20383;-57
2022/12/16 03:51:37;;;;;;;;;;;-2.90;99.90;;;;;;5062212;28;20016;-58
2022/12/16 03:54:02;;;;;;;;;;;-2.90;99.90;;;;;;5063354;28;20321;-58
2022/12/16 03:56:28;;;;;;;;;;;-2.90;99.90;;;;;;5062649;28;19920;-57
2022/12/16 03:58:53;;;;;;;;;;;-3.00;99.90;;;;;;5054387;28;19916;-58
2022/12/16 04:01:18;;;;;;;;;;;-3.00;99.90;;;;;;5050775;28;20312;-57
2022/12/16 04:03:44;;;;;;;;;;;-3.00;99.90;;;;;;5052109;28;19917;-58
2022/12/16 04:06:09;;;;;;;;;;;-3.00;99.90;;;;;;5062973;28;20458;-58
2022/12/16 04:08:35;;;;;;;;;;;-3.00;99.90;;;;;;5050422;28;20300;-56
2022/12/16 04:25:09;;;;;;;;;;;-3.00;99.90;;;;;;5050543;28;20255;-59
2022/12/16 04:27:35;;;;;;;;;;;-3.00;99.90;;;;;;5062220;28;19941;-57
2022/12/16 04:30:19;;;;;;;;;;;-3.00;99.90;;;;;;5053294;28;20013;-56
